sensor_id;sensor_type;location;lat;lon;timestamp;temperature;humidity
69595;DHT22;56800;52.142;5.364;2023-04-25T00:01:19;7.10;76.50
69595;DHT22;56800;52.142;5.364;2023-04-25T00:03:46;7.10;76.60
69595;DHT22;56800;52.142;5.364;2023-04-25T00:06:14;7.00;76.60
69595;DHT22;56800;52.142;5.364;2023-04-25T00:08:40;7.00;76.70
69595;DHT22;56800;52.142;5.364;2023-04-25T00:11:07;7.00;76.80
69595;DHT22;56800;52.142;5.364;2023-04-25T00:13:34;7.00;76.90
69595;DHT22;56800;52.142;5.364;2023-04-25T00:16:00;7.00;77.20
69595;DHT22;56800;52.142;5.364;2023-04-25T00:18:29;7.00;77.00
69595;DHT22;56800;52.142;5.364;2023-04-25T00:20:56;7.00;77.00
69595;DHT22;56800;52.142;5.364;2023-04-25T00:23:22;7.00;77.10
69595;DHT22;56800;52.142;5.364;2023-04-25T00:25:50;7.00;77.00
69595;DHT22;56800;52.142;5.364;2023-04-25T00:28:17;7.00;77.00
69595;DHT22;56800;52.142;5.364;2023-04-25T00:30:44;7.00;77.00
69595;DHT22;56800;52.142;5.364;2023-04-25T00:33:10;7.00;77.00
69595;DHT22;56800;52.142;5.364;2023-04-25T00:35:38;7.00;77.00
69595;DHT22;56800;52.142;5.364;2023-04-25T00:38:05;7.00;77.00
69595;DHT22;56800;52.142;5.364;2023-04-25T00:40:31;7.00;77.00
69595;DHT22;56800;52.142;5.364;2023-04-25T00:42:58;7.00;77.00
69595;DHT22;56800;52.142;5.364;2023-04-25T00:45:28;7.00;77.00
69595;DHT22;56800;52.142;5.364;2023-04-25T00:47:57;7.00;77.00
69595;DHT22;56800;52.142;5.364;2023-04-25T00:50:24;7.00;77.00
69595;DHT22;56800;52.142;5.364;2023-04-25T00:52:51;7.00;77.00
69595;DHT22;56800;52.142;5.364;2023-04-25T00:55:18;7.00;77.00
69595;DHT22;56800;52.142;5.364;2023-04-25T00:57:45;7.00;77.00
69595;DHT22;56800;52.142;5.364;2023-04-25T01:00:14;7.00;77.00
69595;DHT22;56800;52.142;5.364;2023-04-25T01:02:41;7.00;76.90
69595;DHT22;56800;52.142;5.364;2023-04-25T01:05:11;7.10;77.00
69595;DHT22;56800;52.142;5.364;2023-04-25T01:07:38;7.00;76.80
69595;DHT22;56800;52.142;5.364;2023-04-25T01:10:06;7.00;76.70
69595;DHT22;56800;52.142;5.364;2023-04-25T01:12:33;7.00;76.70
69595;DHT22;56800;52.142;5.364;2023-04-25T01:15:00;7.00;76.70
69595;DHT22;56800;52.142;5.364;2023-04-25T01:17:27;7.00;76.60
69595;DHT22;56800;52.142;5.364;2023-04-25T01:19:55;6.90;76.50
69595;DHT22;56800;52.142;5.364;2023-04-25T01:22:22;6.90;76.50
69595;DHT22;56800;52.142;5.364;2023-04-25T01:24:49;6.80;76.80
69595;DHT22;56800;52.142;5.364;2023-04-25T01:27:16;6.80;76.60
69595;DHT22;56800;52.142;5.364;2023-04-25T01:29:43;6.80;76.50
69595;DHT22;56800;52.142;5.364;2023-04-25T01:32:10;6.70;76.40
69595;DHT22;56800;52.142;5.364;2023-04-25T01:34:37;6.70;76.40
69595;DHT22;56800;52.142;5.364;2023-04-25T01:37:04;6.70;76.50
69595;DHT22;56800;52.142;5.364;2023-04-25T01:39:30;6.60;76.40
69595;DHT22;56800;52.142;5.364;2023-04-25T01:41:59;6.60;76.50
69595;DHT22;56800;52.142;5.364;2023-04-25T01:44:26;6.60;76.50
69595;DHT22;56800;52.142;5.364;2023-04-25T01:46:53;6.50;76.40
69595;DHT22;56800;52.142;5.364;2023-04-25T01:49:20;6.50;76.40
69595;DHT22;56800;52.142;5.364;2023-04-25T01:51:47;6.50;76.50
69595;DHT22;56800;52.142;5.364;2023-04-25T01:54:13;6.50;76.50
69595;DHT22;56800;52.142;5.364;2023-04-25T01:56:40;6.40;76.40
69595;DHT22;56800;52.142;5.364;2023-04-25T01:59:07;6.40;76.30
69595;DHT22;56800;52.142;5.364;2023-04-25T02:01:33;6.40;76.30
69595;DHT22;56800;52.142;5.364;2023-04-25T02:04:00;6.40;76.30
69595;DHT22;56800;52.142;5.364;2023-04-25T02:06:27;6.30;76.30
69595;DHT22;56800;52.142;5.364;2023-04-25T02:08:54;6.30;76.30
69595;DHT22;56800;52.142;5.364;2023-04-25T02:11:21;6.30;76.20
69595;DHT22;56800;52.142;5.364;2023-04-25T02:13:47;6.20;76.30
69595;DHT22;56800;52.142;5.364;2023-04-25T02:16:14;6.20;76.30
69595;DHT22;56800;52.142;5.364;2023-04-25T02:18:41;6.20;76.30
69595;DHT22;56800;52.142;5.364;2023-04-25T02:21:08;6.20;76.20
69595;DHT22;56800;52.142;5.364;2023-04-25T02:23:34;6.20;76.30
69595;DHT22;56800;52.142;5.364;2023-04-25T02:26:01;6.10;76.20
69595;DHT22;56800;52.142;5.364;2023-04-25T02:28:28;6.10;76.30
69595;DHT22;56800;52.142;5.364;2023-04-25T02:30:55;6.10;76.30
69595;DHT22;56800;52.142;5.364;2023-04-25T02:33:22;6.10;76.30
69595;DHT22;56800;52.142;5.364;2023-04-25T02:35:48;6.10;76.40
69595;DHT22;56800;52.142;5.364;2023-04-25T02:38:15;6.00;76.30
69595;DHT22;56800;52.142;5.364;2023-04-25T02:40:42;6.00;76.40
69595;DHT22;56800;52.142;5.364;2023-04-25T02:43:08;6.00;76.40
69595;DHT22;56800;52.142;5.364;2023-04-25T02:45:35;6.00;76.50
69595;DHT22;56800;52.142;5.364;2023-04-25T02:48:03;6.10;76.50
69595;DHT22;56800;52.142;5.364;2023-04-25T02:50:30;6.00;76.60
69595;DHT22;56800;52.142;5.364;2023-04-25T02:52:56;6.00;76.60
69595;DHT22;56800;52.142;5.364;2023-04-25T02:55:23;6.00;76.60
69595;DHT22;56800;52.142;5.364;2023-04-25T02:57:53;6.10;76.70
69595;DHT22;56800;52.142;5.364;2023-04-25T03:00:22;6.10;76.70
69595;DHT22;56800;52.142;5.364;2023-04-25T03:02:49;6.10;76.70
69595;DHT22;56800;52.142;5.364;2023-04-25T03:05:16;6.10;76.70
69595;DHT22;56800;52.142;5.364;2023-04-25T03:07:43;6.10;76.70
69595;DHT22;56800;52.142;5.364;2023-04-25T03:10:10;6.10;76.70
69595;DHT22;56800;52.142;5.364;2023-04-25T03:12:37;6.10;76.80
69595;DHT22;56800;52.142;5.364;2023-04-25T03:15:04;6.10;76.70
69595;DHT22;56800;52.142;5.364;2023-04-25T03:17:31;6.10;76.70
69595;DHT22;56800;52.142;5.364;2023-04-25T03:19:58;6.10;76.70
69595;DHT22;56800;52.142;5.364;2023-04-25T03:22:24;6.10;76.70
69595;DHT22;56800;52.142;5.364;2023-04-25T03:24:51;6.00;76.60
69595;DHT22;56800;52.142;5.364;2023-04-25T03:27:17;6.00;76.60
69595;DHT22;56800;52.142;5.364;2023-04-25T03:29:44;6.00;76.60
69595;DHT22;56800;52.142;5.364;2023-04-25T03:32:11;6.00;76.70
69595;DHT22;56800;52.142;5.364;2023-04-25T03:34:38;6.00;76.70
69595;DHT22;56800;52.142;5.364;2023-04-25T03:37:04;6.00;76.80
69595;DHT22;56800;52.142;5.364;2023-04-25T03:39:31;6.10;76.80
69595;DHT22;56800;52.142;5.364;2023-04-25T03:41:58;6.00;76.80
69595;DHT22;56800;52.142;5.364;2023-04-25T03:44:24;6.00;76.70
69595;DHT22;56800;52.142;5.364;2023-04-25T03:46:51;6.10;76.80
69595;DHT22;56800;52.142;5.364;2023-04-25T03:49:18;6.10;76.80
69595;DHT22;56800;52.142;5.364;2023-04-25T03:51:45;6.10;76.80
69595;DHT22;56800;52.142;5.364;2023-04-25T03:54:11;6.10;76.70
69595;DHT22;56800;52.142;5.364;2023-04-25T03:56:38;6.10;76.70
69595;DHT22;56800;52.142;5.364;2023-04-25T03:59:05;6.10;76.70
69595;DHT22;56800;52.142;5.364;2023-04-25T04:01:31;6.10;76.70
69595;DHT22;56800;52.142;5.364;2023-04-25T04:03:58;6.10;76.70
69595;DHT22;56800;52.142;5.364;2023-04-25T04:06:25;6.20;76.70
69595;DHT22;56800;52.142;5.364;2023-04-25T04:08:52;6.20;76.70
69595;DHT22;56800;52.142;5.364;2023-04-25T04:11:19;6.20;76.60
69595;DHT22;56800;52.142;5.364;2023-04-25T04:13:46;6.20;76.60
69595;DHT22;56800;52.142;5.364;2023-04-25T04:16:14;6.20;76.60
69595;DHT22;56800;52.142;5.364;2023-04-25T04:18:40;6.20;76.60
69595;DHT22;56800;52.142;5.364;2023-04-25T04:21:07;6.20;76.60
69595;DHT22;56800;52.142;5.364;2023-04-25T04:23:34;6.20;76.50
69595;DHT22;56800;52.142;5.364;2023-04-25T04:26:03;6.20;76.40
69595;DHT22;56800;52.142;5.364;2023-04-25T04:28:30;6.20;76.40
69595;DHT22;56800;52.142;5.364;2023-04-25T04:30:57;6.20;76.30
69595;DHT22;56800;52.142;5.364;2023-04-25T04:33:24;6.20;76.20
69595;DHT22;56800;52.142;5.364;2023-04-25T04:35:51;6.10;76.20
69595;DHT22;56800;52.142;5.364;2023-04-25T04:38:19;6.20;76.20
69595;DHT22;56800;52.142;5.364;2023-04-25T04:40:47;6.20;76.20
69595;DHT22;56800;52.142;5.364;2023-04-25T04:43:14;6.20;76.20
69595;DHT22;56800;52.142;5.364;2023-04-25T04:45:43;6.20;76.20
69595;DHT22;56800;52.142;5.364;2023-04-25T04:48:11;6.20;76.20
69595;DHT22;56800;52.142;5.364;2023-04-25T04:50:40;6.20;76.10
69595;DHT22;56800;52.142;5.364;2023-04-25T04:53:09;6.20;76.20
69595;DHT22;56800;52.142;5.364;2023-04-25T04:55:35;6.20;76.20
69595;DHT22;56800;52.142;5.364;2023-04-25T04:58:02;6.20;76.10
69595;DHT22;56800;52.142;5.364;2023-04-25T05:00:29;6.20;76.10
69595;DHT22;56800;52.142;5.364;2023-04-25T05:02:56;6.30;76.20
69595;DHT22;56800;52.142;5.364;2023-04-25T05:05:23;6.30;76.10
69595;DHT22;56800;52.142;5.364;2023-04-25T05:07:51;6.30;76.10
69595;DHT22;56800;52.142;5.364;2023-04-25T05:10:19;6.30;76.20
69595;DHT22;56800;52.142;5.364;2023-04-25T05:12:46;6.30;76.20
69595;DHT22;56800;52.142;5.364;2023-04-25T05:15:13;6.30;76.00
69595;DHT22;56800;52.142;5.364;2023-04-25T05:17:40;6.40;75.90
69595;DHT22;56800;52.142;5.364;2023-04-25T05:20:08;6.30;75.90
69595;DHT22;56800;52.142;5.364;2023-04-25T05:22:35;6.40;75.90
69595;DHT22;56800;52.142;5.364;2023-04-25T05:25:02;6.40;75.90
69595;DHT22;56800;52.142;5.364;2023-04-25T05:27:30;6.40;76.00
69595;DHT22;56800;52.142;5.364;2023-04-25T05:29:56;6.40;76.00
69595;DHT22;56800;52.142;5.364;2023-04-25T05:32:23;6.40;75.90
69595;DHT22;56800;52.142;5.364;2023-04-25T05:34:52;6.40;76.00
69595;DHT22;56800;52.142;5.364;2023-04-25T05:37:18;6.50;76.00
69595;DHT22;56800;52.142;5.364;2023-04-25T05:39:45;6.50;76.00
69595;DHT22;56800;52.142;5.364;2023-04-25T05:42:12;6.60;76.00
69595;DHT22;56800;52.142;5.364;2023-04-25T05:44:39;6.60;76.10
69595;DHT22;56800;52.142;5.364;2023-04-25T05:47:05;6.60;76.00
69595;DHT22;56800;52.142;5.364;2023-04-25T05:49:32;6.70;76.10
69595;DHT22;56800;52.142;5.364;2023-04-25T05:51:58;6.70;76.10
69595;DHT22;56800;52.142;5.364;2023-04-25T05:54:25;6.70;76.00
69595;DHT22;56800;52.142;5.364;2023-04-25T05:56:52;6.80;75.90
69595;DHT22;56800;52.142;5.364;2023-04-25T05:59:18;6.80;75.90
69595;DHT22;56800;52.142;5.364;2023-04-25T06:01:45;6.90;76.00
69595;DHT22;56800;52.142;5.364;2023-04-25T06:04:13;6.90;75.90
69595;DHT22;56800;52.142;5.364;2023-04-25T06:06:40;7.00;75.90
69595;DHT22;56800;52.142;5.364;2023-04-25T06:09:07;7.00;75.80
69595;DHT22;56800;52.142;5.364;2023-04-25T06:11:33;7.10;75.80
69595;DHT22;56800;52.142;5.364;2023-04-25T06:14:00;7.10;75.60
69595;DHT22;56800;52.142;5.364;2023-04-25T06:16:27;7.20;75.50
69595;DHT22;56800;52.142;5.364;2023-04-25T06:18:54;7.20;75.40
69595;DHT22;56800;52.142;5.364;2023-04-25T06:21:20;7.30;75.40
69595;DHT22;56800;52.142;5.364;2023-04-25T06:23:47;7.30;75.20
69595;DHT22;56800;52.142;5.364;2023-04-25T06:26:15;7.40;75.10
69595;DHT22;56800;52.142;5.364;2023-04-25T06:28:41;7.40;75.00
69595;DHT22;56800;52.142;5.364;2023-04-25T06:31:08;7.40;74.90
69595;DHT22;56800;52.142;5.364;2023-04-25T06:33:35;7.40;74.90
69595;DHT22;56800;52.142;5.364;2023-04-25T06:36:01;7.50;74.80
69595;DHT22;56800;52.142;5.364;2023-04-25T06:38:28;7.50;74.80
69595;DHT22;56800;52.142;5.364;2023-04-25T06:40:54;7.60;74.60
69595;DHT22;56800;52.142;5.364;2023-04-25T06:43:21;7.70;74.60
69595;DHT22;56800;52.142;5.364;2023-04-25T06:45:48;7.70;74.50
69595;DHT22;56800;52.142;5.364;2023-04-25T06:48:14;7.70;74.30
69595;DHT22;56800;52.142;5.364;2023-04-25T06:50:41;7.80;74.20
69595;DHT22;56800;52.142;5.364;2023-04-25T06:53:08;7.80;74.00
69595;DHT22;56800;52.142;5.364;2023-04-25T06:55:35;7.80;73.70
69595;DHT22;56800;52.142;5.364;2023-04-25T06:58:02;7.90;73.70
69595;DHT22;56800;52.142;5.364;2023-04-25T07:00:29;7.90;73.60
69595;DHT22;56800;52.142;5.364;2023-04-25T07:02:57;7.90;73.40
69595;DHT22;56800;52.142;5.364;2023-04-25T07:05:24;8.00;73.20
69595;DHT22;56800;52.142;5.364;2023-04-25T07:07:51;8.00;72.90
69595;DHT22;56800;52.142;5.364;2023-04-25T07:10:17;8.00;72.80
69595;DHT22;56800;52.142;5.364;2023-04-25T07:12:44;8.00;72.50
69595;DHT22;56800;52.142;5.364;2023-04-25T07:15:10;8.00;72.30
69595;DHT22;56800;52.142;5.364;2023-04-25T07:17:38;8.00;72.50
69595;DHT22;56800;52.142;5.364;2023-04-25T07:20:05;8.10;72.10
69595;DHT22;56800;52.142;5.364;2023-04-25T07:22:32;8.10;72.20
69595;DHT22;56800;52.142;5.364;2023-04-25T07:24:59;8.20;72.50
69595;DHT22;56800;52.142;5.364;2023-04-25T07:27:26;8.40;72.50
69595;DHT22;56800;52.142;5.364;2023-04-25T07:29:52;8.50;72.40
69595;DHT22;56800;52.142;5.364;2023-04-25T07:32:20;8.60;72.00
69595;DHT22;56800;52.142;5.364;2023-04-25T07:34:47;8.80;71.80
69595;DHT22;56800;52.142;5.364;2023-04-25T07:37:13;8.90;71.40
69595;DHT22;56800;52.142;5.364;2023-04-25T07:39:41;9.00;71.30
69595;DHT22;56800;52.142;5.364;2023-04-25T07:42:08;9.00;70.70
69595;DHT22;56800;52.142;5.364;2023-04-25T07:44:35;9.10;71.30
69595;DHT22;56800;52.142;5.364;2023-04-25T07:47:09;9.20;70.10
69595;DHT22;56800;52.142;5.364;2023-04-25T07:49:36;9.30;69.90
69595;DHT22;56800;52.142;5.364;2023-04-25T07:52:04;9.30;69.60
69595;DHT22;56800;52.142;5.364;2023-04-25T07:54:32;9.40;69.50
69595;DHT22;56800;52.142;5.364;2023-04-25T07:56:59;9.40;69.50
69595;DHT22;56800;52.142;5.364;2023-04-25T07:59:26;9.50;69.40
69595;DHT22;56800;52.142;5.364;2023-04-25T08:01:55;9.60;69.20
69595;DHT22;56800;52.142;5.364;2023-04-25T08:04:24;9.60;68.40
69595;DHT22;56800;52.142;5.364;2023-04-25T08:06:51;9.70;68.00
69595;DHT22;56800;52.142;5.364;2023-04-25T08:09:20;9.80;67.90
69595;DHT22;56800;52.142;5.364;2023-04-25T08:11:47;9.90;67.80
69595;DHT22;56800;52.142;5.364;2023-04-25T08:14:13;10.00;67.60
69595;DHT22;56800;52.142;5.364;2023-04-25T08:16:40;10.10;67.00
69595;DHT22;56800;52.142;5.364;2023-04-25T08:19:07;10.20;66.70
69595;DHT22;56800;52.142;5.364;2023-04-25T08:21:34;10.30;66.10
69595;DHT22;56800;52.142;5.364;2023-04-25T08:24:00;10.20;65.20
69595;DHT22;56800;52.142;5.364;2023-04-25T08:26:29;10.10;64.80
69595;DHT22;56800;52.142;5.364;2023-04-25T08:28:56;9.90;64.80
69595;DHT22;56800;52.142;5.364;2023-04-25T08:31:23;9.70;64.60
69595;DHT22;56800;52.142;5.364;2023-04-25T08:33:49;9.60;64.80
69595;DHT22;56800;52.142;5.364;2023-04-25T08:36:18;9.50;65.00
69595;DHT22;56800;52.142;5.364;2023-04-25T08:39:03;9.40;65.30
69595;DHT22;56800;52.142;5.364;2023-04-25T08:41:30;9.40;65.10
69595;DHT22;56800;52.142;5.364;2023-04-25T08:43:58;9.50;64.90
69595;DHT22;56800;52.142;5.364;2023-04-25T08:46:27;9.50;65.00
69595;DHT22;56800;52.142;5.364;2023-04-25T08:49:02;9.50;65.00
69595;DHT22;56800;52.142;5.364;2023-04-25T08:51:32;9.80;65.50
69595;DHT22;56800;52.142;5.364;2023-04-25T08:54:08;10.30;65.40
69595;DHT22;56800;52.142;5.364;2023-04-25T08:56:57;10.90;64.80
69595;DHT22;56800;52.142;5.364;2023-04-25T08:59:24;11.40;63.90
69595;DHT22;56800;52.142;5.364;2023-04-25T09:01:51;11.90;63.10
69595;DHT22;56800;52.142;5.364;2023-04-25T09:04:18;12.20;62.10
69595;DHT22;56800;52.142;5.364;2023-04-25T09:06:47;12.70;61.30
69595;DHT22;56800;52.142;5.364;2023-04-25T09:09:14;12.90;60.40
69595;DHT22;56800;52.142;5.364;2023-04-25T09:11:41;13.20;60.70
69595;DHT22;56800;52.142;5.364;2023-04-25T09:14:19;13.80;60.80
69595;DHT22;56800;52.142;5.364;2023-04-25T09:19:27;14.60;57.80
69595;DHT22;56800;52.142;5.364;2023-04-25T09:22:07;14.80;56.90
69595;DHT22;56800;52.142;5.364;2023-04-25T09:24:44;15.10;56.50
69595;DHT22;56800;52.142;5.364;2023-04-25T09:27:18;15.00;55.30
69595;DHT22;56800;52.142;5.364;2023-04-25T09:29:45;14.70;54.90
69595;DHT22;56800;52.142;5.364;2023-04-25T09:34:47;14.40;54.70
69595;DHT22;56800;52.142;5.364;2023-04-25T09:37:26;14.20;54.40
69595;DHT22;56800;52.142;5.364;2023-04-25T09:40:00;13.90;53.60
69595;DHT22;56800;52.142;5.364;2023-04-25T09:42:32;13.60;53.60
69595;DHT22;56800;52.142;5.364;2023-04-25T09:45:02;13.40;54.00
69595;DHT22;56800;52.142;5.364;2023-04-25T09:47:30;13.10;54.80
69595;DHT22;56800;52.142;5.364;2023-04-25T09:49:58;12.80;55.90
69595;DHT22;56800;52.142;5.364;2023-04-25T09:52:25;12.50;56.70
69595;DHT22;56800;52.142;5.364;2023-04-25T09:54:52;12.30;57.20
69595;DHT22;56800;52.142;5.364;2023-04-25T09:57:24;12.10;57.80
69595;DHT22;56800;52.142;5.364;2023-04-25T09:59:52;12.00;58.10
69595;DHT22;56800;52.142;5.364;2023-04-25T10:02:24;11.90;58.60
69595;DHT22;56800;52.142;5.364;2023-04-25T10:04:53;11.90;58.90
69595;DHT22;56800;52.142;5.364;2023-04-25T10:07:26;12.00;59.30
69595;DHT22;56800;52.142;5.364;2023-04-25T10:09:59;12.10;58.90
69595;DHT22;56800;52.142;5.364;2023-04-25T10:12:28;12.30;58.80
69595;DHT22;56800;52.142;5.364;2023-04-25T10:14:55;12.50;58.70
69595;DHT22;56800;52.142;5.364;2023-04-25T10:17:22;12.60;57.70
69595;DHT22;56800;52.142;5.364;2023-04-25T10:19:50;12.80;57.20
69595;DHT22;56800;52.142;5.364;2023-04-25T10:22:23;13.00;56.90
69595;DHT22;56800;52.142;5.364;2023-04-25T10:24:52;13.20;56.30
69595;DHT22;56800;52.142;5.364;2023-04-25T10:27:19;13.40;56.00
69595;DHT22;56800;52.142;5.364;2023-04-25T10:30:13;13.60;55.50
69595;DHT22;56800;52.142;5.364;2023-04-25T10:32:42;13.60;53.40
69595;DHT22;56800;52.142;5.364;2023-04-25T10:35:16;13.60;53.10
69595;DHT22;56800;52.142;5.364;2023-04-25T10:38:11;13.60;52.50
69595;DHT22;56800;52.142;5.364;2023-04-25T10:40:39;13.60;52.50
69595;DHT22;56800;52.142;5.364;2023-04-25T10:46:01;13.90;52.50
69595;DHT22;56800;52.142;5.364;2023-04-25T10:48:29;14.30;53.30
69595;DHT22;56800;52.142;5.364;2023-04-25T10:51:09;14.50;51.80
69595;DHT22;56800;52.142;5.364;2023-04-25T10:53:36;14.60;50.90
69595;DHT22;56800;52.142;5.364;2023-04-25T11:01:40;15.00;50.10
69595;DHT22;56800;52.142;5.364;2023-04-25T11:04:20;14.80;50.00
69595;DHT22;56800;52.142;5.364;2023-04-25T11:06:55;14.60;49.70
69595;DHT22;56800;52.142;5.364;2023-04-25T11:09:33;14.30;49.40
69595;DHT22;56800;52.142;5.364;2023-04-25T11:12:00;13.90;50.60
69595;DHT22;56800;52.142;5.364;2023-04-25T11:14:27;13.60;51.50
69595;DHT22;56800;52.142;5.364;2023-04-25T11:16:54;13.40;52.20
69595;DHT22;56800;52.142;5.364;2023-04-25T11:19:27;13.10;52.80
69595;DHT22;56800;52.142;5.364;2023-04-25T11:22:00;12.80;53.50
69595;DHT22;56800;52.142;5.364;2023-04-25T11:24:36;12.60;54.20
69595;DHT22;56800;52.142;5.364;2023-04-25T11:27:05;12.50;55.00
69595;DHT22;56800;52.142;5.364;2023-04-25T11:29:33;12.30;55.50
69595;DHT22;56800;52.142;5.364;2023-04-25T11:32:00;12.20;56.00
69595;DHT22;56800;52.142;5.364;2023-04-25T11:34:29;12.10;56.10
69595;DHT22;56800;52.142;5.364;2023-04-25T11:36:57;12.10;56.20
69595;DHT22;56800;52.142;5.364;2023-04-25T11:39:26;12.00;56.30
69595;DHT22;56800;52.142;5.364;2023-04-25T11:41:53;11.90;56.30
69595;DHT22;56800;52.142;5.364;2023-04-25T11:44:20;11.90;56.60
69595;DHT22;56800;52.142;5.364;2023-04-25T11:46:48;12.00;56.60
69595;DHT22;56800;52.142;5.364;2023-04-25T11:49:15;12.10;56.80
69595;DHT22;56800;52.142;5.364;2023-04-25T11:51:44;12.30;56.90
69595;DHT22;56800;52.142;5.364;2023-04-25T11:54:11;12.70;57.10
69595;DHT22;56800;52.142;5.364;2023-04-25T11:56:45;13.10;56.20
69595;DHT22;56800;52.142;5.364;2023-04-25T11:59:12;13.30;53.60
69595;DHT22;56800;52.142;5.364;2023-04-25T12:01:41;13.50;53.00
69595;DHT22;56800;52.142;5.364;2023-04-25T12:04:22;13.70;52.60
69595;DHT22;56800;52.142;5.364;2023-04-25T12:06:52;13.90;52.00
69595;DHT22;56800;52.142;5.364;2023-04-25T12:09:21;14.00;51.80
69595;DHT22;56800;52.142;5.364;2023-04-25T12:11:55;13.80;50.00
69595;DHT22;56800;52.142;5.364;2023-04-25T12:14:22;13.40;49.70
69595;DHT22;56800;52.142;5.364;2023-04-25T12:16:50;13.10;50.30
69595;DHT22;56800;52.142;5.364;2023-04-25T12:19:19;12.90;51.10
69595;DHT22;56800;52.142;5.364;2023-04-25T12:21:47;12.80;51.00
69595;DHT22;56800;52.142;5.364;2023-04-25T12:24:21;12.70;50.70
69595;DHT22;56800;52.142;5.364;2023-04-25T12:27:04;12.60;50.40
69595;DHT22;56800;52.142;5.364;2023-04-25T12:29:34;12.50;50.90
69595;DHT22;56800;52.142;5.364;2023-04-25T12:32:15;12.40;50.90
69595;DHT22;56800;52.142;5.364;2023-04-25T12:34:43;12.40;51.40
69595;DHT22;56800;52.142;5.364;2023-04-25T12:37:10;12.50;51.90
69595;DHT22;56800;52.142;5.364;2023-04-25T12:39:37;12.70;52.10
69595;DHT22;56800;52.142;5.364;2023-04-25T12:42:04;12.80;51.90
69595;DHT22;56800;52.142;5.364;2023-04-25T12:44:34;12.90;51.20
69595;DHT22;56800;52.142;5.364;2023-04-25T12:47:01;12.90;51.10
69595;DHT22;56800;52.142;5.364;2023-04-25T12:49:29;12.90;50.80
69595;DHT22;56800;52.142;5.364;2023-04-25T12:51:56;13.00;51.00
69595;DHT22;56800;52.142;5.364;2023-04-25T12:54:22;13.20;51.30
69595;DHT22;56800;52.142;5.364;2023-04-25T12:56:49;13.40;51.60
69595;DHT22;56800;52.142;5.364;2023-04-25T12:59:17;13.90;51.80
69595;DHT22;56800;52.142;5.364;2023-04-25T13:01:44;14.20;50.50
69595;DHT22;56800;52.142;5.364;2023-04-25T13:04:12;14.30;49.40
69595;DHT22;56800;52.142;5.364;2023-04-25T13:06:39;14.40;49.20
69595;DHT22;56800;52.142;5.364;2023-04-25T13:09:05;14.40;48.50
69595;DHT22;56800;52.142;5.364;2023-04-25T13:11:33;14.30;47.60
69595;DHT22;56800;52.142;5.364;2023-04-25T13:14:00;14.00;47.70
69595;DHT22;56800;52.142;5.364;2023-04-25T13:16:27;13.70;47.80
69595;DHT22;56800;52.142;5.364;2023-04-25T13:18:54;13.40;47.80
69595;DHT22;56800;52.142;5.364;2023-04-25T13:21:22;13.10;47.60
69595;DHT22;56800;52.142;5.364;2023-04-25T13:23:49;13.00;48.40
69595;DHT22;56800;52.142;5.364;2023-04-25T13:26:16;13.00;49.20
69595;DHT22;56800;52.142;5.364;2023-04-25T13:28:42;13.30;49.30
69595;DHT22;56800;52.142;5.364;2023-04-25T13:31:10;13.60;48.40
69595;DHT22;56800;52.142;5.364;2023-04-25T13:33:37;13.70;47.40
69595;DHT22;56800;52.142;5.364;2023-04-25T13:36:04;13.60;47.90
69595;DHT22;56800;52.142;5.364;2023-04-25T13:38:30;13.50;48.30
69595;DHT22;56800;52.142;5.364;2023-04-25T13:40:57;13.50;48.30
69595;DHT22;56800;52.142;5.364;2023-04-25T13:43:24;13.40;48.30
69595;DHT22;56800;52.142;5.364;2023-04-25T13:45:50;13.20;48.10
69595;DHT22;56800;52.142;5.364;2023-04-25T13:48:18;13.10;48.20
69595;DHT22;56800;52.142;5.364;2023-04-25T13:50:46;12.90;48.50
69595;DHT22;56800;52.142;5.364;2023-04-25T13:53:12;12.90;49.50
69595;DHT22;56800;52.142;5.364;2023-04-25T13:55:39;13.00;49.60
69595;DHT22;56800;52.142;5.364;2023-04-25T13:58:06;13.00;49.50
69595;DHT22;56800;52.142;5.364;2023-04-25T14:00:38;12.90;49.30
69595;DHT22;56800;52.142;5.364;2023-04-25T14:03:06;12.80;49.30
69595;DHT22;56800;52.142;5.364;2023-04-25T14:05:36;12.70;49.60
69595;DHT22;56800;52.142;5.364;2023-04-25T14:08:09;12.70;49.60
69595;DHT22;56800;52.142;5.364;2023-04-25T14:10:36;12.60;50.20
69595;DHT22;56800;52.142;5.364;2023-04-25T14:13:03;12.60;50.80
69595;DHT22;56800;52.142;5.364;2023-04-25T14:15:34;12.50;49.90
69595;DHT22;56800;52.142;5.364;2023-04-25T14:18:01;12.40;48.90
69595;DHT22;56800;52.142;5.364;2023-04-25T14:20:28;12.30;48.70
69595;DHT22;56800;52.142;5.364;2023-04-25T14:22:55;12.20;48.50
69595;DHT22;56800;52.142;5.364;2023-04-25T14:25:24;12.10;48.40
69595;DHT22;56800;52.142;5.364;2023-04-25T14:27:50;12.00;48.40
69595;DHT22;56800;52.142;5.364;2023-04-25T14:30:18;11.90;48.70
69595;DHT22;56800;52.142;5.364;2023-04-25T14:32:45;12.10;49.40
69595;DHT22;56800;52.142;5.364;2023-04-25T14:35:12;12.40;49.70
69595;DHT22;56800;52.142;5.364;2023-04-25T14:37:39;12.80;49.90
69595;DHT22;56800;52.142;5.364;2023-04-25T14:40:07;13.10;48.60
69595;DHT22;56800;52.142;5.364;2023-04-25T14:42:39;13.10;48.70
69595;DHT22;56800;52.142;5.364;2023-04-25T14:45:07;12.90;47.30
69595;DHT22;56800;52.142;5.364;2023-04-25T14:47:36;12.70;47.10
69595;DHT22;56800;52.142;5.364;2023-04-25T14:50:03;12.60;47.40
69595;DHT22;56800;52.142;5.364;2023-04-25T14:52:31;12.40;47.20
69595;DHT22;56800;52.142;5.364;2023-04-25T14:54:57;12.30;47.00
69595;DHT22;56800;52.142;5.364;2023-04-25T14:57:26;12.10;47.30
69595;DHT22;56800;52.142;5.364;2023-04-25T14:59:53;12.00;47.70
69595;DHT22;56800;52.142;5.364;2023-04-25T15:02:20;12.00;48.20
69595;DHT22;56800;52.142;5.364;2023-04-25T15:04:46;12.10;48.60
69595;DHT22;56800;52.142;5.364;2023-04-25T15:07:13;12.20;48.10
69595;DHT22;56800;52.142;5.364;2023-04-25T15:09:43;12.30;47.90
69595;DHT22;56800;52.142;5.364;2023-04-25T15:12:10;12.50;47.60
69595;DHT22;56800;52.142;5.364;2023-04-25T15:14:37;12.70;47.50
69595;DHT22;56800;52.142;5.364;2023-04-25T15:17:04;12.90;47.20
69595;DHT22;56800;52.142;5.364;2023-04-25T15:19:30;13.10;47.20
69595;DHT22;56800;52.142;5.364;2023-04-25T15:21:57;13.20;47.00
69595;DHT22;56800;52.142;5.364;2023-04-25T15:24:27;13.30;46.30
69595;DHT22;56800;52.142;5.364;2023-04-25T15:26:55;13.20;46.00
69595;DHT22;56800;52.142;5.364;2023-04-25T15:29:22;13.00;46.50
69595;DHT22;56800;52.142;5.364;2023-04-25T15:31:49;12.80;47.00
69595;DHT22;56800;52.142;5.364;2023-04-25T15:34:16;12.70;47.70
69595;DHT22;56800;52.142;5.364;2023-04-25T15:36:43;12.50;48.20
69595;DHT22;56800;52.142;5.364;2023-04-25T15:39:09;12.40;48.60
69595;DHT22;56800;52.142;5.364;2023-04-25T15:41:36;12.30;48.90
69595;DHT22;56800;52.142;5.364;2023-04-25T15:44:03;12.20;48.80
69595;DHT22;56800;52.142;5.364;2023-04-25T15:46:30;12.10;49.60
69595;DHT22;56800;52.142;5.364;2023-04-25T15:48:57;11.90;48.80
69595;DHT22;56800;52.142;5.364;2023-04-25T15:51:24;11.80;49.20
69595;DHT22;56800;52.142;5.364;2023-04-25T15:53:51;11.90;49.40
69595;DHT22;56800;52.142;5.364;2023-04-25T15:56:17;11.90;49.70
69595;DHT22;56800;52.142;5.364;2023-04-25T15:58:44;12.10;49.80